^^
Station Historical Data
Daily Summary for December 07, 2018 Units:  Metric    English   Both
« Previous Day
Next Day »
Daily Weekly Monthly Yearly Custom
  High: Low: Average:
Temperature: -2.7 °C -12.8 °C -9 °C
Dew Point: -7.9 °C -14.3 °C -11.4 °C
Humidity: 89% 66% 83%
Wind Speed: 16.1km/h 1.6km/h 8.2km/h
Wind Gust: 19.3km/h - -
Wind- - SSW
Pressure: 1035.8 hPa 1030.7 hPa -
Precipitation: 0 mm    
Historical Graphs
 
 
Tabular Data for December 07, 2018
Time Temperature Dew Point Pressure Wind Wind Speed Wind Gust Humidity Rainfall Rate (Hourly) solar Conditions
00:04 -10.4 °C -13 °C 1031.4 hPa SSE 6.4 km/h 8 km/h 81% 0 mm 0.00 W/m2
00:09 -10.4 °C -12.9 °C 1031 hPa SSE 8 km/h 9.7 km/h 82% 0 mm 0.00 W/m2
00:14 -10.5 °C -13 °C 1031 hPa South 9.7 km/h 9.7 km/h 82% 0 mm 0.00 W/m2
00:19 -10.4 °C -12.8 °C 1031 hPa South 4.8 km/h 12.9 km/h 83% 0 mm 0.00 W/m2
00:24 -10.5 °C -12.8 °C 1031 hPa South 8 km/h 12.9 km/h 83% 0 mm 0.00 W/m2
00:29 -10.6 °C -12.9 °C 1031 hPa South 8 km/h 11.3 km/h 83% 0 mm 0.00 W/m2
00:34 -10.6 °C -12.8 °C 1031 hPa South 6.4 km/h 11.3 km/h 84% 0 mm 0.00 W/m2
00:39 -10.7 °C -12.8 °C 1031 hPa SSW 6.4 km/h 11.3 km/h 84% 0 mm 0.00 W/m2
00:44 -10.7 °C -12.9 °C 1031 hPa SSW 6.4 km/h 11.3 km/h 84% 0 mm 0.00 W/m2
00:49 -10.7 °C -12.8 °C 1031 hPa SSW 8 km/h 11.3 km/h 85% 0 mm 0.00 W/m2
00:54 -10.7 °C -12.8 °C 1031 hPa SW 4.8 km/h 9.7 km/h 85% 0 mm 0.00 W/m2
00:59 -10.7 °C -12.6 °C 1031 hPa SW 4.8 km/h 9.7 km/h 86% 0 mm 0.00 W/m2
01:04 -10.7 °C -12.6 °C 1031 hPa SW 4.8 km/h 9.7 km/h 86% 0 mm 0.00 W/m2
01:09 -10.8 °C -12.7 °C 1031 hPa SW 4.8 km/h 9.7 km/h 86% 0 mm 0.00 W/m2
01:14 -10.9 °C -12.8 °C 1030.7 hPa SW 8 km/h 8 km/h 86% 0 mm 0.00 W/m2
01:19 -10.9 °C -12.8 °C 1030.7 hPa SW 6.4 km/h 9.7 km/h 86% 0 mm 0.00 W/m2
01:24 -11 °C -12.9 °C 1030.7 hPa SW 4.8 km/h 9.7 km/h 86% 0 mm 0.00 W/m2
01:29 -11.1 °C -12.9 °C 1030.7 hPa WSW 4.8 km/h 8 km/h 86% 0 mm 0.00 W/m2
01:34 -11.2 °C -13.1 °C 1031 hPa WSW 6.4 km/h 8 km/h 86% 0 mm 0.00 W/m2
01:39 -11.3 °C -13 °C 1031 hPa SW 6.4 km/h 8 km/h 87% 0 mm 0.00 W/m2
01:44 -11.4 °C -13.1 °C 1031 hPa WSW 6.4 km/h 8 km/h 87% 0 mm 0.00 W/m2
01:49 -11.5 °C -13.2 °C 1031 hPa WSW 4.8 km/h 8 km/h 87% 0 mm 0.00 W/m2
01:54 -11.6 °C -13.3 °C 1031 hPa WSW 4.8 km/h 8 km/h 87% 0 mm 0.00 W/m2
01:59 -11.7 °C -13.4 °C 1031 hPa SW 6.4 km/h 9.7 km/h 87% 0 mm 0.00 W/m2
02:04 -11.8 °C -13.5 °C 1031 hPa WSW 6.4 km/h 11.3 km/h 87% 0 mm 0.00 W/m2
02:09 -11.9 °C -13.7 °C 1031 hPa WSW 8 km/h 11.3 km/h 87% 0 mm 0.00 W/m2
02:14 -12 °C -13.7 °C 1031 hPa WSW 8 km/h 9.7 km/h 87% 0 mm 0.00 W/m2
02:19 -11.9 °C -13.6 °C 1031 hPa West 9.7 km/h 11.3 km/h 88% 0 mm 0.00 W/m2
02:24 -11.8 °C -13.4 °C 1031 hPa West 9.7 km/h 11.3 km/h 88% 0 mm 0.00 W/m2
02:29 -11.6 °C -13.2 °C 1031 hPa West 9.7 km/h 12.9 km/h 88% 0 mm 0.00 W/m2
02:34 -11.4 °C -13 °C 1031 hPa West 8 km/h 12.9 km/h 88% 0 mm 0.00 W/m2
02:39 -11.3 °C -12.9 °C 1031.4 hPa West 9.7 km/h 11.3 km/h 88% 0 mm 0.00 W/m2
02:44 -11.4 °C -13.2 °C 1031.4 hPa West 8 km/h 11.3 km/h 87% 0 mm 0.00 W/m2
02:49 -11.6 °C -13.3 °C 1031.4 hPa West 9.7 km/h 11.3 km/h 87% 0 mm 0.00 W/m2
02:54 -11.7 °C -13.4 °C 1031.4 hPa West 6.4 km/h 11.3 km/h 87% 0 mm 0.00 W/m2
02:59 -11.8 °C -13.5 °C 1031.4 hPa West 8 km/h 9.7 km/h 87% 0 mm 0.00 W/m2
03:04 -11.8 °C -13.6 °C 1031.4 hPa West 6.4 km/h 8 km/h 87% 0 mm 0.00 W/m2
03:09 -11.9 °C -13.6 °C 1031.4 hPa West 6.4 km/h 8 km/h 87% 0 mm 0.00 W/m2
03:14 -11.9 °C -13.6 °C 1031.4 hPa West 4.8 km/h 8 km/h 88% 0 mm 0.00 W/m2
03:19 -12 °C -13.6 °C 1031.4 hPa WNW 11.3 km/h 11.3 km/h 88% 0 mm 0.00 W/m2
03:24 -11.9 °C -13.5 °C 1031.4 hPa WNW 8 km/h 11.3 km/h 88% 0 mm 0.00 W/m2
03:29 -11.8 °C -13.4 °C 1031.7 hPa WNW 8 km/h 12.9 km/h 88% 0 mm 0.00 W/m2
03:34 -11.6 °C -13.2 °C 1031.7 hPa WNW 12.9 km/h 16.1 km/h 88% 0 mm 0.00 W/m2
03:39 -11.2 °C -12.8 °C 1031.7 hPa WNW 16.1 km/h 19.3 km/h 88% 0 mm 0.00 W/m2
03:44 -11.2 °C -12.9 °C 1031.7 hPa West 16.1 km/h 19.3 km/h 87% 0 mm 0.00 W/m2
03:49 -11.3 °C -13 °C 1031.7 hPa West 12.9 km/h 19.3 km/h 87% 0 mm 0.00 W/m2
03:54 -11.4 °C -13.2 °C 1031.7 hPa West 12.9 km/h 17.7 km/h 87% 0 mm 0.00 W/m2
03:59 -11.7 °C -13.4 °C 1031.7 hPa West 9.7 km/h 16.1 km/h 87% 0 mm 0.00 W/m2
04:04 -11.7 °C -13.4 °C 1031.7 hPa West 8 km/h 14.5 km/h 87% 0 mm 0.00 W/m2
04:09 -11.8 °C -13.6 °C 1031.7 hPa West 9.7 km/h 14.5 km/h 87% 0 mm 0.00 W/m2
04:14 -12 °C -13.7 °C 1031.7 hPa West 9.7 km/h 11.3 km/h 87% 0 mm 0.00 W/m2
04:19 -12.2 °C -13.9 °C 1031.7 hPa West 8 km/h 11.3 km/h 87% 0 mm 0.00 W/m2
04:24 -12.2 °C -13.9 °C 1032.1 hPa WNW 11.3 km/h 11.3 km/h 87% 0 mm 0.00 W/m2
04:29 -12.1 °C -13.7 °C 1031.7 hPa WNW 8 km/h 12.9 km/h 88% 0 mm 0.00 W/m2
04:34 -12.1 °C -13.7 °C 1032.1 hPa WNW 9.7 km/h 12.9 km/h 88% 0 mm 0.00 W/m2
04:39 -12.1 °C -13.7 °C 1032.1 hPa West 11.3 km/h 14.5 km/h 88% 0 mm 0.00 W/m2
04:44 -12.2 °C -13.7 °C 1032.1 hPa WNW 11.3 km/h 14.5 km/h 88% 0 mm 0.00 W/m2
04:49 -12.2 °C -13.7 °C 1032.1 hPa WNW 9.7 km/h 12.9 km/h 88% 0 mm 0.00 W/m2
04:54 -12.2 °C -13.8 °C 1032.1 hPa West 9.7 km/h 12.9 km/h 88% 0 mm 0.00 W/m2
04:59 -12.3 °C -13.8 °C 1032.1 hPa West 8 km/h 12.9 km/h 88% 0 mm 0.00 W/m2
05:04 -12.5 °C -14.1 °C 1032.1 hPa West 6.4 km/h 11.3 km/h 88% 0 mm 0.00 W/m2
05:09 -12.6 °C -14.2 °C 1032.1 hPa West 8 km/h 9.7 km/h 88% 0 mm 0.00 W/m2
05:14 -12.7 °C -14.2 °C 1032.1 hPa West 8 km/h 9.7 km/h 88% 0 mm 0.00 W/m2
05:19 -12.7 °C -14.2 °C 1032.1 hPa West 8 km/h 9.7 km/h 88% 0 mm 0.00 W/m2
05:24 -12.7 °C -14.3 °C 1032.1 hPa West 8 km/h 9.7 km/h 88% 0 mm 0.00 W/m2
05:29 -12.8 °C -14.2 °C 1032.1 hPa West 8 km/h 9.7 km/h 89% 0 mm 0.00 W/m2
05:34 -12.7 °C -14.2 °C 1032.1 hPa West 9.7 km/h 11.3 km/h 89% 0 mm 0.00 W/m2
05:39 -12.8 °C -14.2 °C 1032.1 hPa West 8 km/h 11.3 km/h 89% 0 mm 0.00 W/m2
05:44 -12.8 °C -14.3 °C 1032.4 hPa West 9.7 km/h 11.3 km/h 89% 0 mm 0.00 W/m2
05:49 -12.8 °C -14.3 °C 1032.4 hPa West 12.9 km/h 12.9 km/h 89% 0 mm 0.00 W/m2
05:54 -12.8 °C -14.3 °C 1032.4 hPa West 12.9 km/h 14.5 km/h 89% 0 mm 0.00 W/m2
05:59 -12.6 °C -14.1 °C 1032.4 hPa WNW 12.9 km/h 14.5 km/h 89% 0 mm 0.00 W/m2
06:04 -12.3 °C -13.7 °C 1032.7 hPa WNW 11.3 km/h 16.1 km/h 89% 0 mm 0.00 W/m2
06:09 -12.3 °C -13.7 °C 1032.7 hPa West 11.3 km/h 16.1 km/h 89% 0 mm 0.00 W/m2
06:14 -12.4 °C -13.9 °C 1032.7 hPa WNW 11.3 km/h 14.5 km/h 88% 0 mm 0.00 W/m2
06:19 -12.4 °C -14 °C 1033.1 hPa WNW 11.3 km/h 12.9 km/h 88% 0 mm 0.00 W/m2
06:24 -12.5 °C -14.1 °C 1033.1 hPa WNW 8 km/h 12.9 km/h 88% 0 mm 0.00 W/m2
06:29 -12.6 °C -14.1 °C 1033.1 hPa WNW 9.7 km/h 11.3 km/h 88% 0 mm 0.00 W/m2
06:34 -12.6 °C -14.2 °C 1033.1 hPa WNW 8 km/h 12.9 km/h 88% 0 mm 0.00 W/m2
06:39 -12.7 °C -14.2 °C 1033.1 hPa WNW 8 km/h 12.9 km/h 88% 0 mm 0.00 W/m2
06:44 -12.7 °C -14.3 °C 1033.1 hPa WNW 8 km/h 11.3 km/h 88% 0 mm 0.00 W/m2
06:49 -12.7 °C -14.1 °C 1033.1 hPa WNW 8 km/h 11.3 km/h 89% 0 mm 0.00 W/m2
06:54 -12.4 °C -13.9 °C 1033.1 hPa WNW 9.7 km/h 12.9 km/h 89% 0 mm 0.00 W/m2
06:59 -12.4 °C -13.8 °C 1033.4 hPa WNW 11.3 km/h 12.9 km/h 89% 0 mm 0.00 W/m2
07:04 -12.5 °C -13.9 °C 1033.4 hPa WNW 9.7 km/h 12.9 km/h 89% 0 mm 0.00 W/m2
07:09 -12.6 °C -14.1 °C 1033.4 hPa WNW 6.4 km/h 12.9 km/h 88% 0 mm 0.00 W/m2
07:14 -12.6 °C -14 °C 1033.7 hPa WNW 8 km/h 12.9 km/h 89% 0 mm 0.00 W/m2
07:19 -12.4 °C -13.8 °C 1033.7 hPa WNW 4.8 km/h 11.3 km/h 89% 0 mm 0.00 W/m2
07:24 -12.2 °C -13.6 °C 1033.7 hPa WNW 8 km/h 11.3 km/h 89% 0 mm 0.00 W/m2
07:29 -11.8 °C -13.3 °C 1033.7 hPa WNW 4.8 km/h 11.3 km/h 89% 0 mm 0.00 W/m2
07:34 -11.6 °C -13.1 °C 1033.7 hPa West 8 km/h 11.3 km/h 89% 0 mm 0.00 W/m2
07:39 -11.4 °C -12.8 °C 1033.7 hPa West 6.4 km/h 11.3 km/h 89% 0 mm 0.00 W/m2
07:44 -11.3 °C -12.8 °C 1033.7 hPa WNW 11.3 km/h 12.9 km/h 89% 0 mm 0.00 W/m2
07:49 -11.3 °C -12.7 °C 1033.7 hPa West 4.8 km/h 12.9 km/h 89% 0 mm 0.00 W/m2
07:54 -11.7 °C -13.3 °C 1034.1 hPa WSW 4.8 km/h 11.3 km/h 88% 0 mm 0.00 W/m2
07:59 -11.9 °C -13.5 °C 1034.1 hPa WSW 4.8 km/h 8 km/h 88% 0 mm 0.00 W/m2
08:04 -12 °C -13.6 °C 1034.1 hPa WSW 8 km/h 9.7 km/h 88% 0 mm 0.00 W/m2
08:09 -12 °C -13.6 °C 1034.1 hPa West 8 km/h 9.7 km/h 88% 0 mm 0.00 W/m2
08:14 -11.9 °C -13.4 °C 1034.1 hPa West 6.4 km/h 9.7 km/h 89% 0 mm 5.00 W/m2
08:19 -11.9 °C -13.3 °C 1034.1 hPa West 6.4 km/h 8 km/h 89% 0 mm 5.00 W/m2
08:24 -11.9 °C -13.4 °C 1034.1 hPa WSW 8 km/h 9.7 km/h 89% 0 mm 7.00 W/m2
08:29 -11.9 °C -13.4 °C 1034.1 hPa WSW 8 km/h 9.7 km/h 89% 0 mm 11.00 W/m2
08:34 -11.9 °C -13.4 °C 1034.1 hPa WSW 8 km/h 11.3 km/h 89% 0 mm 14.00 W/m2
08:39 -12 °C -13.4 °C 1034.1 hPa WSW 6.4 km/h 12.9 km/h 89% 0 mm 23.00 W/m2
08:44 -12.1 °C -13.5 °C 1034.1 hPa WSW 8 km/h 12.9 km/h 89% 0 mm 21.00 W/m2
08:49 -12.1 °C -13.5 °C 1034.1 hPa WSW 9.7 km/h 11.3 km/h 89% 0 mm 25.00 W/m2
08:54 -12.1 °C -13.5 °C 1034.1 hPa West 8 km/h 11.3 km/h 89% 0 mm 28.00 W/m2
08:59 -12.1 °C -13.7 °C 1034.4 hPa West 11.3 km/h 12.9 km/h 88% 0 mm 42.00 W/m2
09:04 -12.1 °C -13.6 °C 1034.4 hPa West 8 km/h 16.1 km/h 88% 0 mm 42.00 W/m2
09:09 -12.1 °C -13.6 °C 1034.4 hPa WSW 9.7 km/h 16.1 km/h 88% 0 mm 53.00 W/m2
09:14 -12.1 °C -13.7 °C 1034.4 hPa West 6.4 km/h 11.3 km/h 88% 0 mm 56.00 W/m2
09:19 -12.2 °C -13.7 °C 1034.8 hPa West 8 km/h 11.3 km/h 88% 0 mm 53.00 W/m2
09:24 -12.2 °C -13.8 °C 1034.8 hPa West 6.4 km/h 11.3 km/h 88% 0 mm 81.00 W/m2
09:29 -12.2 °C -13.8 °C 1035.1 hPa WNW 3.2 km/h 11.3 km/h 88% 0 mm 86.00 W/m2
09:34 -12.2 °C -13.8 °C 1035.1 hPa WNW 4.8 km/h 8 km/h 88% 0 mm 97.00 W/m2
09:39 -12.1 °C -13.7 °C 1035.1 hPa WNW 4.8 km/h 8 km/h 88% 0 mm 107.00 W/m2
09:44 -11.9 °C -13.6 °C 1035.1 hPa WNW 8 km/h 8 km/h 88% 0 mm 116.00 W/m2
09:49 -11.8 °C -13.6 °C 1035.1 hPa NW 9.7 km/h 9.7 km/h 87% 0 mm 128.00 W/m2
09:54 -11.6 °C -13.3 °C 1035.1 hPa NW 8 km/h 11.3 km/h 87% 0 mm 141.00 W/m2
09:59 -11.4 °C -13.2 °C 1035.1 hPa WNW 9.7 km/h 12.9 km/h 87% 0 mm 151.00 W/m2
10:04 -11.3 °C -13.1 °C 1035.1 hPa NW 6.4 km/h 12.9 km/h 87% 0 mm 163.00 W/m2
10:09 -11.2 °C -12.9 °C 1035.1 hPa WNW 9.7 km/h 11.3 km/h 87% 0 mm 178.00 W/m2
10:14 -11 °C -12.7 °C 1035.4 hPa WNW 8 km/h 9.7 km/h 87% 0 mm 192.00 W/m2
10:19 -10.8 °C -12.6 °C 1035.4 hPa WNW 6.4 km/h 9.7 km/h 87% 0 mm 204.00 W/m2
10:24 -10.7 °C -12.4 °C 1035.4 hPa WNW 4.8 km/h 9.7 km/h 87% 0 mm 216.00 W/m2
10:29 -10.6 °C -12.5 °C 1035.4 hPa WNW 3.2 km/h 8 km/h 86% 0 mm 229.00 W/m2
10:34 -10.4 °C -12.2 °C 1035.8 hPa West 4.8 km/h 8 km/h 87% 0 mm 237.00 W/m2
10:39 -10.2 °C -11.9 °C 1035.8 hPa West 3.2 km/h 8 km/h 87% 0 mm 250.00 W/m2
10:44 -10 °C -11.8 °C 1035.8 hPa West 4.8 km/h 6.4 km/h 87% 0 mm 262.00 W/m2
10:49 -9.7 °C -11.6 °C 1035.8 hPa West 6.4 km/h 8 km/h 86% 0 mm 272.00 W/m2
10:54 -9.6 °C -11.4 °C 1035.8 hPa WSW 6.4 km/h 11.3 km/h 86% 0 mm 281.00 W/m2
10:59 -9.4 °C -11.3 °C 1035.8 hPa WSW 9.7 km/h 11.3 km/h 86% 0 mm 290.00 W/m2
11:04 -9.2 °C -11.1 °C 1035.8 hPa West 9.7 km/h 11.3 km/h 86% 0 mm 297.00 W/m2
11:09 -9.1 °C -11 °C 1035.8 hPa West 8 km/h 11.3 km/h 86% 0 mm 304.00 W/m2
11:14 -8.9 °C -11 °C 1035.8 hPa West 11.3 km/h 14.5 km/h 85% 0 mm 311.00 W/m2
11:19 -8.8 °C -10.9 °C 1035.8 hPa West 11.3 km/h 14.5 km/h 85% 0 mm 316.00 W/m2
11:24 -8.7 °C -10.7 °C 1035.8 hPa West 9.7 km/h 12.9 km/h 85% 0 mm 320.00 W/m2
11:29 -8.6 °C -10.8 °C 1035.8 hPa West 6.4 km/h 12.9 km/h 84% 0 mm 323.00 W/m2
11:34 -8.3 °C -10.4 °C 1035.8 hPa SW 4.8 km/h 9.7 km/h 85% 0 mm 329.00 W/m2
11:39 -8.2 °C -10.4 °C 1035.8 hPa WSW 6.4 km/h 9.7 km/h 84% 0 mm 332.00 W/m2
11:44 -8.1 °C -10.5 °C 1035.8 hPa WSW 9.7 km/h 11.3 km/h 83% 0 mm 338.00 W/m2
11:49 -8 °C -10.4 °C 1035.8 hPa SW 9.7 km/h 11.3 km/h 83% 0 mm 339.00 W/m2
11:54 -7.8 °C -10.2 °C 1035.4 hPa WSW 9.7 km/h 12.9 km/h 83% 0 mm 339.00 W/m2
11:59 -7.7 °C -10.3 °C 1035.4 hPa West 6.4 km/h 12.9 km/h 82% 0 mm 343.00 W/m2
12:04 -7.5 °C -10.1 °C 1035.4 hPa WSW 8 km/h 11.3 km/h 82% 0 mm 345.00 W/m2
12:09 -7.2 °C -9.8 °C 1035.4 hPa WSW 6.4 km/h 11.3 km/h 82% 0 mm 348.00 W/m2
12:14 -7 °C -9.7 °C 1035.4 hPa SW 3.2 km/h 11.3 km/h 81% 0 mm 350.00 W/m2
12:19 -6.5 °C -9.2 °C 1035.4 hPa SSW 3.2 km/h 9.7 km/h 81% 0 mm 352.00 W/m2
12:24 -6.5 °C -9.7 °C 1035.1 hPa SW 6.4 km/h 9.7 km/h 78% 0 mm 352.00 W/m2
12:29 -6.3 °C -9.4 °C 1035.1 hPa SW 3.2 km/h 8 km/h 79% 0 mm 355.00 W/m2
12:34 -6.1 °C -9.3 °C 1035.1 hPa SW 4.8 km/h 8 km/h 78% 0 mm 353.00 W/m2
12:39 -5.8 °C -9.2 °C 1035.1 hPa SSW 6.4 km/h 9.7 km/h 77% 0 mm 355.00 W/m2
12:44 -5.9 °C -9.3 °C 1035.1 hPa SW 8 km/h 11.3 km/h 77% 0 mm 355.00 W/m2
12:49 -5.8 °C -9.2 °C 1035.1 hPa SSW 4.8 km/h 11.3 km/h 77% 0 mm 355.00 W/m2
12:54 -5.8 °C -9.4 °C 1035.1 hPa SW 4.8 km/h 11.3 km/h 76% 0 mm 353.00 W/m2
12:59 -5.4 °C -8.8 °C 1034.8 hPa SSW 6.4 km/h 11.3 km/h 77% 0 mm 352.00 W/m2
13:04 -5.4 °C -9.2 °C 1034.8 hPa SW 11.3 km/h 12.9 km/h 75% 0 mm 352.00 W/m2
13:09 -5.3 °C -8.8 °C 1034.8 hPa SW 8 km/h 12.9 km/h 76% 0 mm 348.00 W/m2
13:14 -5.2 °C -8.9 °C 1034.8 hPa SSW 3.2 km/h 11.3 km/h 75% 0 mm 345.00 W/m2
13:19 -5.1 °C -8.8 °C 1034.8 hPa SSW 11.3 km/h 12.9 km/h 75% 0 mm 343.00 W/m2
13:24 -4.9 °C -8.7 °C 1034.8 hPa SW 6.4 km/h 12.9 km/h 75% 0 mm 339.00 W/m2
13:29 -4.9 °C -8.8 °C 1034.8 hPa SW 11.3 km/h 14.5 km/h 74% 0 mm 336.00 W/m2
13:34 -4.9 °C -8.9 °C 1034.8 hPa SSW 8 km/h 14.5 km/h 74% 0 mm 332.00 W/m2
13:39 -4.6 °C -8.6 °C 1034.8 hPa WSW 11.3 km/h 11.3 km/h 74% 0 mm 329.00 W/m2
13:44 -4.9 °C -9 °C 1034.4 hPa SSW 4.8 km/h 11.3 km/h 73% 0 mm 323.00 W/m2
13:49 -4.8 °C -8.9 °C 1034.4 hPa SW 8 km/h 11.3 km/h 73% 0 mm 320.00 W/m2
13:54 -4.8 °C -8.9 °C 1034.4 hPa SW 6.4 km/h 9.7 km/h 73% 0 mm 311.00 W/m2
13:59 -4.7 °C -8.6 °C 1034.4 hPa SW 3.2 km/h 9.7 km/h 74% 0 mm 306.00 W/m2
14:04 -4.3 °C -8.4 °C 1034.4 hPa SSW 4.8 km/h 11.3 km/h 73% 0 mm 301.00 W/m2
14:09 -4.3 °C -8.6 °C 1034.4 hPa WSW 8 km/h 11.3 km/h 72% 0 mm 294.00 W/m2
14:14 -4.4 °C -8.7 °C 1034.4 hPa SW 4.8 km/h 11.3 km/h 72% 0 mm 287.00 W/m2
14:19 -4.4 °C -8.7 °C 1034.4 hPa WSW 6.4 km/h 11.3 km/h 72% 0 mm 278.00 W/m2
14:24 -4.4 °C -8.7 °C 1034.4 hPa WSW 8 km/h 9.7 km/h 72% 0 mm 269.00 W/m2
14:29 -4.1 °C -8.3 °C 1034.4 hPa SSW 3.2 km/h 9.7 km/h 72% 0 mm 260.00 W/m2
14:34 -3.9 °C -8.6 °C 1034.4 hPa SW 3.2 km/h 9.7 km/h 70% 0 mm 251.00 W/m2
14:39 -4 °C -8.7 °C 1034.1 hPa SW 4.8 km/h 8 km/h 70% 0 mm 239.00 W/m2
14:44 -3.9 °C -8.6 °C 1034.1 hPa WSW 1.6 km/h 9.7 km/h 70% 0 mm 229.00 W/m2
14:49 -3.7 °C -8.2 °C 1034.4 hPa South 3.2 km/h 9.7 km/h 71% 0 mm 218.00 W/m2
14:54 -3.3 °C -8 °C 1034.4 hPa South 3.2 km/h 9.7 km/h 70% 0 mm 206.00 W/m2
14:59 -3.1 °C -8 °C 1034.4 hPa South 4.8 km/h 8 km/h 69% 0 mm 197.00 W/m2
15:04 -3.1 °C -8.1 °C 1034.4 hPa SSW 4.8 km/h 8 km/h 68% 0 mm 183.00 W/m2
15:09 -2.8 °C -7.9 °C 1034.1 hPa SSW 4.8 km/h 8 km/h 68% 0 mm 171.00 W/m2
15:14 -2.8 °C -8.1 °C 1034.1 hPa SW 4.8 km/h 6.4 km/h 67% 0 mm 158.00 W/m2
15:19 -2.7 °C -7.9 °C 1034.1 hPa South 6.4 km/h 8 km/h 67% 0 mm 144.00 W/m2
15:24 -2.7 °C -8.2 °C 1034.1 hPa SSW 8 km/h 9.7 km/h 66% 0 mm 135.00 W/m2
15:29 -2.7 °C -8.2 °C 1034.1 hPa SSW 11.3 km/h 11.3 km/h 66% 0 mm 121.00 W/m2
15:34 -2.7 °C -8.2 °C 1034.1 hPa SSW 4.8 km/h 11.3 km/h 66% 0 mm 111.00 W/m2
15:39 -2.8 °C -8.3 °C 1034.1 hPa South 8 km/h 11.3 km/h 66% 0 mm 98.00 W/m2
15:44 -2.9 °C -8.3 °C 1034.1 hPa SSW 8 km/h 11.3 km/h 66% 0 mm 88.00 W/m2
15:49 -2.9 °C -8.2 °C 1034.1 hPa South 6.4 km/h 11.3 km/h 67% 0 mm 77.00 W/m2
15:54 -2.9 °C -8.3 °C 1034.1 hPa SSW 8 km/h 11.3 km/h 66% 0 mm 67.00 W/m2
15:59 -3 °C -8.4 °C 1034.1 hPa South 6.4 km/h 11.3 km/h 66% 0 mm 58.00 W/m2
16:04 -3.2 °C -8.7 °C 1034.1 hPa South 6.4 km/h 11.3 km/h 66% 0 mm 47.00 W/m2
16:09 -3.4 °C -8.7 °C 1034.1 hPa South 8 km/h 12.9 km/h 67% 0 mm 39.00 W/m2
16:14 -3.5 °C -8.6 °C 1034.1 hPa South 6.4 km/h 12.9 km/h 68% 0 mm 30.00 W/m2
16:19 -3.6 °C -8.7 °C 1034.1 hPa South 6.4 km/h 11.3 km/h 68% 0 mm 25.00 W/m2
16:24 -3.7 °C -8.6 °C 1034.1 hPa South 6.4 km/h 11.3 km/h 69% 0 mm 21.00 W/m2
16:29 -3.8 °C -8.7 °C 1034.1 hPa South 6.4 km/h 9.7 km/h 69% 0 mm 18.00 W/m2
16:34 -4 °C -8.8 °C 1034.4 hPa South 4.8 km/h 9.7 km/h 69% 0 mm 16.00 W/m2
16:39 -4.2 °C -9 °C 1034.4 hPa South 4.8 km/h 8 km/h 69% 0 mm 14.00 W/m2
16:44 -4.4 °C -9.1 °C 1034.4 hPa South 3.2 km/h 8 km/h 70% 0 mm 12.00 W/m2
16:49 -4.6 °C -9.3 °C 1034.4 hPa South 4.8 km/h 6.4 km/h 70% 0 mm 9.00 W/m2
16:54 -4.9 °C -9.3 °C 1034.4 hPa South 6.4 km/h 8 km/h 71% 0 mm 7.00 W/m2
16:59 -5.1 °C -9.3 °C 1034.4 hPa South 4.8 km/h 8 km/h 72% 0 mm 5.00 W/m2
17:04 -5.2 °C -9.3 °C 1034.4 hPa South 4.8 km/h 8 km/h 73% 0 mm 0.00 W/m2
17:09 -5.3 °C -9.4 °C 1034.4 hPa South 4.8 km/h 8 km/h 73% 0 mm 0.00 W/m2
17:14 -5.5 °C -9.4 °C 1034.4 hPa SSE 4.8 km/h 6.4 km/h 74% 0 mm 0.00 W/m2
17:19 -5.7 °C -9.6 °C 1034.4 hPa SSE 6.4 km/h 6.4 km/h 74% 0 mm 0.00 W/m2
17:24 -5.8 °C -9.5 °C 1034.4 hPa SE 6.4 km/h 8 km/h 75% 0 mm 0.00 W/m2
17:29 -5.9 °C -9.6 °C 1034.4 hPa SE 8 km/h 8 km/h 75% 0 mm 0.00 W/m2
17:34 -5.9 °C -9.7 °C 1034.4 hPa ESE 6.4 km/h 8 km/h 75% 0 mm 0.00 W/m2
17:39 -6.1 °C -9.8 °C 1034.4 hPa ESE 6.4 km/h 8 km/h 75% 0 mm 0.00 W/m2
17:44 -6.3 °C -9.8 °C 1034.4 hPa ESE 6.4 km/h 8 km/h 76% 0 mm 0.00 W/m2
17:49 -6.4 °C -9.9 °C 1034.1 hPa ESE 8 km/h 8 km/h 76% 0 mm 0.00 W/m2
17:54 -6.4 °C -10 °C 1034.1 hPa ESE 6.4 km/h 11.3 km/h 76% 0 mm 0.00 W/m2
17:59 -6.6 °C -9.9 °C 1034.1 hPa ESE 8 km/h 11.3 km/h 77% 0 mm 0.00 W/m2
18:04 -6.6 °C -10 °C 1034.4 hPa ESE 8 km/h 11.3 km/h 77% 0 mm 0.00 W/m2
18:09 -6.7 °C -10.1 °C 1034.4 hPa ESE 8 km/h 11.3 km/h 77% 0 mm 0.00 W/m2
18:14 -6.8 °C -10 °C 1034.4 hPa ESE 8 km/h 11.3 km/h 78% 0 mm 0.00 W/m2
18:19 -6.9 °C -10.1 °C 1034.4 hPa ESE 8 km/h 11.3 km/h 78% 0 mm 0.00 W/m2
18:24 -7.1 °C -10.3 °C 1034.1 hPa ESE 6.4 km/h 11.3 km/h 78% 0 mm 0.00 W/m2
18:29 -7.2 °C -10.4 °C 1034.4 hPa ESE 8 km/h 11.3 km/h 78% 0 mm 0.00 W/m2
18:34 -7.4 °C -10.4 °C 1034.1 hPa ESE 11.3 km/h 11.3 km/h 79% 0 mm 0.00 W/m2
18:39 -7.6 °C -10.6 °C 1034.1 hPa ESE 8 km/h 11.3 km/h 79% 0 mm 0.00 W/m2
18:44 -7.8 °C -10.6 °C 1034.4 hPa ESE 6.4 km/h 12.9 km/h 80% 0 mm 0.00 W/m2
18:49 -7.9 °C -10.6 °C 1034.1 hPa ESE 6.4 km/h 12.9 km/h 81% 0 mm 0.00 W/m2
18:54 -8 °C -10.7 °C 1034.4 hPa ESE 6.4 km/h 11.3 km/h 81% 0 mm 0.00 W/m2
18:59 -8.2 °C -10.8 °C 1034.1 hPa ESE 11.3 km/h 11.3 km/h 81% 0 mm 0.00 W/m2
19:04 -8.2 °C -10.7 °C 1034.1 hPa SE 8 km/h 11.3 km/h 82% 0 mm 0.00 W/m2
19:09 -8.2 °C -10.7 °C 1034.1 hPa SE 9.7 km/h 11.3 km/h 82% 0 mm 0.00 W/m2
19:14 -8.2 °C -10.7 °C 1034.1 hPa SE 8 km/h 14.5 km/h 82% 0 mm 0.00 W/m2
19:19 -8.1 °C -10.7 °C 1034.4 hPa SE 9.7 km/h 14.5 km/h 82% 0 mm 0.00 W/m2
19:24 -8.1 °C -10.7 °C 1034.1 hPa SE 9.7 km/h 14.5 km/h 82% 0 mm 0.00 W/m2
19:29 -8.1 °C -10.6 °C 1034.1 hPa ESE 12.9 km/h 14.5 km/h 82% 0 mm 0.00 W/m2
19:34 -7.9 °C -10.5 °C 1034.1 hPa ESE 11.3 km/h 14.5 km/h 82% 0 mm 0.00 W/m2
19:39 -7.8 °C -10.4 °C 1034.1 hPa ESE 8 km/h 14.5 km/h 82% 0 mm 0.00 W/m2
19:44 -7.8 °C -10.3 °C 1034.1 hPa ESE 11.3 km/h 16.1 km/h 82% 0 mm 0.00 W/m2
19:49 -7.9 °C -10.4 °C 1034.1 hPa ESE 12.9 km/h 16.1 km/h 82% 0 mm 0.00 W/m2
19:54 -8 °C -10.6 °C 1033.7 hPa ESE 11.3 km/h 16.1 km/h 82% 0 mm 0.00 W/m2
19:59 -8.1 °C -10.6 °C 1033.7 hPa SE 11.3 km/h 16.1 km/h 82% 0 mm 0.00 W/m2
20:04 -8.1 °C -10.7 °C 1033.7 hPa ESE 6.4 km/h 16.1 km/h 82% 0 mm 0.00 W/m2
20:09 -8.2 °C -10.6 °C 1034.1 hPa ESE 11.3 km/h 14.5 km/h 83% 0 mm 0.00 W/m2
20:14 -8.1 °C -10.5 °C 1033.7 hPa ESE 12.9 km/h 14.5 km/h 83% 0 mm 0.00 W/m2
20:19 -8.1 °C -10.5 °C 1033.7 hPa ESE 14.5 km/h 16.1 km/h 83% 0 mm 0.00 W/m2
20:24 -8.2 °C -10.6 °C 1033.7 hPa ESE 11.3 km/h 16.1 km/h 83% 0 mm 0.00 W/m2
20:29 -8.3 °C -10.7 °C 1033.7 hPa ESE 11.3 km/h 16.1 km/h 83% 0 mm 0.00 W/m2
20:34 -8.4 °C -10.8 °C 1033.7 hPa ESE 11.3 km/h 16.1 km/h 83% 0 mm 0.00 W/m2
20:39 -8.6 °C -10.9 °C 1033.7 hPa ESE 11.3 km/h 14.5 km/h 83% 0 mm 0.00 W/m2
20:44 -8.6 °C -10.8 °C 1033.7 hPa SE 11.3 km/h 16.1 km/h 84% 0 mm 0.00 W/m2
20:49 -8.7 °C -10.9 °C 1033.7 hPa ESE 11.3 km/h 16.1 km/h 84% 0 mm 0.00 W/m2
20:54 -8.8 °C -11 °C 1033.7 hPa ESE 8 km/h 16.1 km/h 84% 0 mm 0.00 W/m2
20:59 -8.8 °C -11 °C 1033.7 hPa SE 11.3 km/h 16.1 km/h 84% 0 mm 0.00 W/m2
21:04 -8.8 °C -10.8 °C 1033.7 hPa ESE 16.1 km/h 16.1 km/h 85% 0 mm 0.00 W/m2
21:09 -8.7 °C -10.7 °C 1033.7 hPa ESE 8 km/h 17.7 km/h 85% 0 mm 0.00 W/m2
21:14 -8.6 °C -10.7 °C 1033.7 hPa SE 12.9 km/h 17.7 km/h 85% 0 mm 0.00 W/m2
21:19 -8.6 °C -10.6 °C 1033.7 hPa ESE 14.5 km/h 16.1 km/h 85% 0 mm 0.00 W/m2
21:24 -8.6 °C -10.6 °C 1033.7 hPa SE 11.3 km/h 16.1 km/h 85% 0 mm 0.00 W/m2
21:29 -8.7 °C -10.8 °C 1033.7 hPa ESE 14.5 km/h 16.1 km/h 85% 0 mm 0.00 W/m2
21:34 -8.7 °C -10.7 °C 1033.7 hPa SE 11.3 km/h 14.5 km/h 86% 0 mm 0.00 W/m2
21:39 -8.8 °C -10.7 °C 1033.7 hPa SE 8 km/h 14.5 km/h 86% 0 mm 0.00 W/m2
21:44 -8.7 °C -10.7 °C 1033.7 hPa ESE 14.5 km/h 14.5 km/h 86% 0 mm 0.00 W/m2
21:49 -8.6 °C -10.6 °C 1033.7 hPa SE 12.9 km/h 16.1 km/h 86% 0 mm 0.00 W/m2
21:54 -8.6 °C -10.5 °C 1033.4 hPa SE 14.5 km/h 16.1 km/h 86% 0 mm 0.00 W/m2
21:59 -8.5 °C -10.4 °C 1033.4 hPa SE 12.9 km/h 16.1 km/h 86% 0 mm 0.00 W/m2
22:04 -8.6 °C -10.6 °C 1033.4 hPa ESE 12.9 km/h 17.7 km/h 86% 0 mm 0.00 W/m2
22:09 -8.7 °C -10.7 °C 1033.4 hPa SE 11.3 km/h 17.7 km/h 86% 0 mm 0.00 W/m2
22:14 -8.8 °C -10.7 °C 1033.4 hPa SE 9.7 km/h 16.1 km/h 86% 0 mm 0.00 W/m2
22:19 -8.9 °C -10.8 °C 1033.4 hPa SE 12.9 km/h 16.1 km/h 86% 0 mm 0.00 W/m2
22:24 -8.9 °C -10.8 °C 1033.4 hPa SE 9.7 km/h 16.1 km/h 86% 0 mm 0.00 W/m2
22:29 -9 °C -10.9 °C 1033.4 hPa ESE 12.9 km/h 14.5 km/h 86% 0 mm 0.00 W/m2
22:34 -8.9 °C -10.7 °C 1033.4 hPa ESE 11.3 km/h 14.5 km/h 87% 0 mm 0.00 W/m2
22:39 -8.9 °C -10.7 °C 1033.4 hPa ESE 12.9 km/h 17.7 km/h 87% 0 mm 0.00 W/m2
22:44 -8.9 °C -10.7 °C 1033.4 hPa SE 12.9 km/h 17.7 km/h 87% 0 mm 0.00 W/m2
22:49 -8.9 °C -10.7 °C 1033.4 hPa SE 12.9 km/h 17.7 km/h 87% 0 mm 0.00 W/m2
22:54 -8.9 °C -10.7 °C 1033.4 hPa ESE 14.5 km/h 17.7 km/h 87% 0 mm 0.00 W/m2
22:59 -8.9 °C -10.7 °C 1033.4 hPa SE 11.3 km/h 17.7 km/h 87% 0 mm 0.00 W/m2
23:04 -8.9 °C -10.7 °C 1033.4 hPa SE 11.3 km/h 16.1 km/h 87% 0 mm 0.00 W/m2
23:09 -9 °C -10.8 °C 1033.4 hPa SE 11.3 km/h 16.1 km/h 87% 0 mm 0.00 W/m2
23:14 -9.1 °C -10.8 °C 1033.4 hPa SE 11.3 km/h 17.7 km/h 87% 0 mm 0.00 W/m2
23:19 -9 °C -10.8 °C 1033.4 hPa SE 9.7 km/h 17.7 km/h 87% 0 mm 0.00 W/m2
23:24 -9 °C -10.8 °C 1033.4 hPa SE 12.9 km/h 17.7 km/h 87% 0 mm 0.00 W/m2
23:29 -9.1 °C -10.8 °C 1033.4 hPa SE 9.7 km/h 16.1 km/h 87% 0 mm 0.00 W/m2
23:34 -9.2 °C -11 °C 1033.4 hPa SE 11.3 km/h 16.1 km/h 87% 0 mm 0.00 W/m2
23:39 -9.3 °C -11.1 °C 1033.4 hPa SE 9.7 km/h 14.5 km/h 87% 0 mm 0.00 W/m2
23:44 -9.2 °C -11 °C 1033.4 hPa ESE 8 km/h 14.5 km/h 87% 0 mm 0.00 W/m2
23:49 -9.2 °C -10.9 °C 1033.4 hPa ESE 8 km/h 12.9 km/h 87% 0 mm 0.00 W/m2
23:54 -9.3 °C -11.1 °C 1033.1 hPa ESE 11.3 km/h 12.9 km/h 87% 0 mm 0.00 W/m2
23:59 -9.4 °C -11.2 °C 1033.1 hPa ESE 8 km/h 12.9 km/h 87% 0 mm 0.00 W/m2
Bismarck, North Dakota, USA
Compliments of Weather Underground - 4 mb